| time (UTC) | temp C | wind direction | speed KPH | gust KPH | rain 1hr cm | rain 24hr cm | rain mn cm | humidity % | barometer mb |
| 20260507160807 | 12 | 360 | 3.2 | 3.2 | 0.13 | 0.99 | 0.97 | 94 | 1010.4 |
| 20260507160307 | 12 | 360 | 0.0 | 9.7 | 0.13 | 0.99 | 0.97 | 94 | 1010.1 |
| 20260507155807 | 12 | 360 | 1.6 | 9.7 | 0.13 | 0.99 | 0.97 | 94 | 1010.2 |
| 20260507155307 | 12 | 360 | 1.6 | 4.8 | 0.13 | 0.97 | 0.94 | 94 | 1010.3 |
| 20260507154807 | 12 | 360 | 0.0 | 3.2 | 0.10 | 0.94 | 0.91 | 94 | 1010.2 |
| 20260507153807 | 12 | 360 | 1.6 | 12.9 | 0.08 | 0.91 | 0.89 | 92 | 1010.5 |
| 20260507153307 | 13 | 360 | 12.9 | 12.9 | 0.05 | 0.89 | 0.86 | 93 | 1010.3 |
| 20260507152807 | 13 | 360 | 4.8 | 11.3 | 0.08 | 0.89 | 0.86 | 94 | 1010.0 |
| 20260507152307 | 13 | 360 | 0.0 | 0.0 | 0.05 | 0.86 | 0.84 | 94 | 1009.8 |
| 20260507151807 | 13 | 360 | 0.0 | 3.2 | 0.05 | 0.86 | 0.84 | 94 | 1010.0 |
| 20260507151307 | 13 | 360 | 0.0 | 6.4 | 0.05 | 0.86 | 0.84 | 94 | 1010.1 |
| 20260507150807 | 13 | 360 | 3.2 | 6.4 | 0.08 | 0.86 | 0.84 | 94 | 1010.4 |
| 20260507150307 | 13 | 360 | 0.0 | 4.8 | 0.08 | 0.86 | 0.84 | 94 | 1010.3 |
| 20260507145807 | 13 | 360 | 0.0 | 8.0 | 0.08 | 0.86 | 0.84 | 94 | 1010.4 |
| 20260507145307 | 13 | 360 | 3.2 | 8.0 | 0.05 | 0.84 | 0.81 | 94 | 1010.5 |
| 20260507144807 | 13 | 360 | 0.0 | 9.7 | 0.05 | 0.84 | 0.81 | 94 | 1010.5 |
| 20260507143807 | 13 | 360 | 1.6 | 14.5 | 0.05 | 0.84 | 0.81 | 93 | 1010.4 |
| 20260507143307 | 13 | 360 | 6.4 | 14.5 | 0.05 | 0.84 | 0.81 | 93 | 1010.4 |
| 20260507142807 | 13 | 360 | 1.6 | 11.3 | 0.03 | 0.81 | 0.79 | 92 | 1010.2 |
| 20260507142307 | 13 | 360 | 3.2 | 11.3 | 0.03 | 0.81 | 0.79 | 93 | 1010.0 |
| 20260507141807 | 13 | 360 | 1.6 | 14.5 | 0.03 | 0.81 | 0.79 | 93 | 1010.1 |
| 20260507140807 | 13 | 360 | 1.6 | 14.5 | 0.00 | 0.79 | 0.76 | 92 | 1010.2 |
| 20260507140307 | 13 | 360 | 1.6 | 19.3 | 0.00 | 0.79 | 0.76 | 93 | 1010.0 |
| 20260507135807 | 13 | 360 | 3.2 | 19.3 | 0.00 | 0.79 | 0.76 | 93 | 1009.9 |
| 20260507135307 | 13 | 360 | 9.7 | 11.3 | 0.00 | 0.79 | 0.76 | 93 | 1009.9 |
| 20260507134807 | 14 | 360 | 1.6 | 11.3 | 0.00 | 0.79 | 0.76 | 93 | 1010.0 |
| 20260507134307 | 14 | 360 | 3.2 | 17.7 | 0.00 | 0.79 | 0.76 | 93 | 1009.9 |
| 20260507133807 | 14 | 360 | 6.4 | 17.7 | 0.00 | 0.79 | 0.76 | 93 | 1009.9 |
| 20260507133307 | 14 | 360 | 0.0 | 11.3 | 0.00 | 0.79 | 0.76 | 93 | 1010.0 |
| 20260507132807 | 15 | 360 | 6.4 | 11.3 | 0.00 | 0.79 | 0.76 | 94 | 1010.1 |
| 20260507132308 | 15 | 360 | 6.4 | 11.3 | 0.00 | 0.79 | 0.76 | 94 | 1010.1 |
| 20260507131807 | 15 | 360 | 1.6 | 11.3 | 0.03 | 0.79 | 0.76 | 94 | 1009.9 |
| 20260507131307 | 15 | 360 | 0.0 | 9.7 | 0.03 | 0.79 | 0.76 | 95 | 1009.9 |
| 20260507130807 | 15 | 360 | 0.0 | 9.7 | 0.03 | 0.79 | 0.76 | 95 | 1010.0 |
| 20260507130307 | 15 | 360 | 1.6 | 8.0 | 0.05 | 0.79 | 0.76 | 95 | 1009.9 |
| 20260507125807 | 15 | 360 | 3.2 | 8.0 | 0.08 | 0.79 | 0.76 | 95 | 1009.8 |
| 20260507125307 | 15 | 360 | 1.6 | 11.3 | 0.10 | 0.79 | 0.76 | 95 | 1009.8 |
| 20260507124307 | 15 | 360 | 1.6 | 9.7 | 0.13 | 0.79 | 0.76 | 94 | 1009.9 |
| 20260507123807 | 15 | 360 | 3.2 | 6.4 | 0.13 | 0.79 | 0.76 | 95 | 1009.9 |
| 20260507123307 | 15 | 360 | 0.0 | 11.3 | 0.15 | 0.79 | 0.76 | 94 | 1009.8 |
| 20260507122807 | 15 | 360 | 6.4 | 11.3 | 0.15 | 0.79 | 0.76 | 94 | 1009.7 |
| 20260507122307 | 15 | 360 | 1.6 | 11.3 | 0.15 | 0.79 | 0.76 | 93 | 1009.6 |
| 20260507121807 | 15 | 360 | 1.6 | 9.7 | 0.15 | 0.76 | 0.74 | 93 | 1009.2 |
| 20260507121307 | 15 | 360 | 0.0 | 12.9 | 0.18 | 0.76 | 0.74 | 93 | 1010.1 |
| 20260507120807 | 15 | 360 | 3.2 | 16.1 | 0.20 | 0.76 | 0.74 | 93 | 1010.0 |
| 20260507120307 | 16 | 360 | 1.6 | 16.1 | 0.18 | 0.74 | 0.71 | 93 | 1009.7 |
| 20260507115807 | 16 | 360 | 0.0 | 6.4 | 0.15 | 0.71 | 0.69 | 94 | 1009.7 |
| 20260507114807 | 16 | 360 | 1.6 | 11.3 | 0.13 | 0.66 | 0.64 | 94 | 1009.8 |
| 20260507113807 | 17 | 360 | 0.0 | 9.7 | 0.15 | 0.66 | 0.64 | 93 | 1009.8 |
| 20260507112807 | 17 | 360 | 6.4 | 11.3 | 0.15 | 0.64 | 0.61 | 94 | 1009.3 |
| 20260507111807 | 18 | 360 | 0.0 | 8.0 | 0.15 | 0.61 | 0.58 | 94 | 1009.0 |
| 20260507111307 | 18 | 360 | 0.0 | 11.3 | 0.15 | 0.58 | 0.56 | 94 | 1009.0 |
| 20260507110807 | 18 | 360 | 0.0 | 11.3 | 0.15 | 0.56 | 0.53 | 94 | 1009.0 |
| 20260507110307 | 18 | 360 | 0.0 | 8.0 | 0.15 | 0.56 | 0.53 | 94 | 1008.9 |
| 20260507105807 | 18 | 360 | 1.6 | 9.7 | 0.18 | 0.56 | 0.53 | 94 | 1008.9 |
| 20260507105307 | 19 | 360 | 6.4 | 9.7 | 0.18 | 0.53 | 0.51 | 94 | 1008.7 |
| 20260507104807 | 19 | 360 | 1.6 | 1.6 | 0.20 | 0.53 | 0.51 | 95 | 1008.7 |
| 20260507104306 | 19 | 360 | 0.0 | 1.6 | 0.20 | 0.51 | 0.48 | 95 | 1008.7 |
| 20260507103807 | 19 | 360 | 0.0 | 1.6 | 0.23 | 0.51 | 0.48 | 95 | 1008.7 |
| 20260507103307 | 19 | 360 | 0.0 | 1.6 | 0.23 | 0.48 | 0.46 | 95 | 1008.6 |
| 20260507102807 | 19 | 360 | 0.0 | 8.0 | 0.25 | 0.48 | 0.46 | 95 | 1008.5 |
| 20260507102307 | 19 | 360 | 0.0 | 8.0 | 0.28 | 0.46 | 0.43 | 95 | 1008.5 |
| 20260507101307 | 19 | 360 | 0.0 | 6.4 | 0.25 | 0.43 | 0.41 | 95 | 1008.4 |
| 20260507100307 | 19 | 360 | 0.0 | 8.0 | 0.23 | 0.41 | 0.38 | 94 | 1008.3 |
| 20260507095806 | 19 | 360 | 0.0 | 8.0 | 0.20 | 0.38 | 0.36 | 94 | 1008.3 |
| 20260507095306 | 19 | 360 | 0.0 | 6.4 | 0.18 | 0.36 | 0.33 | 94 | 1008.3 |
| 20260507094807 | 19 | 360 | 0.0 | 3.2 | 0.18 | 0.33 | 0.30 | 94 | 1008.4 |
| 20260507094307 | 19 | 360 | 0.0 | 6.4 | 0.15 | 0.30 | 0.28 | 94 | 1008.5 |
| 20260507093807 | 19 | 360 | 0.0 | 6.4 | 0.13 | 0.28 | 0.25 | 93 | 1008.5 |
| 20260507093306 | 19 | 360 | 1.6 | 6.4 | 0.10 | 0.25 | 0.23 | 93 | 1008.4 |
| 20260507092807 | 19 | 360 | 0.0 | 6.4 | 0.08 | 0.23 | 0.20 | 93 | 1008.4 |
| 20260507092307 | 19 | 360 | 1.6 | 6.4 | 0.03 | 0.18 | 0.15 | 93 | 1008.3 |
| 20260507091807 | 19 | 360 | 0.0 | 14.5 | 0.03 | 0.18 | 0.15 | 93 | 1008.0 |
| 20260507091307 | 19 | 360 | 0.0 | 14.5 | 0.03 | 0.18 | 0.15 | 92 | 1007.8 |
| 20260507090807 | 19 | 360 | 3.2 | 11.3 | 0.03 | 0.18 | 0.15 | 93 | 1007.7 |
| 20260507090306 | 19 | 360 | 9.7 | 12.9 | 0.03 | 0.18 | 0.15 | 93 | 1007.7 |
| 20260507085807 | 19 | 360 | 9.7 | 16.1 | 0.03 | 0.18 | 0.15 | 93 | 1007.7 |
| 20260507085307 | 19 | 360 | 3.2 | 16.1 | 0.03 | 0.18 | 0.15 | 93 | 1007.7 |
| 20260507084806 | 20 | 360 | 6.4 | 17.7 | 0.00 | 0.15 | 0.13 | 93 | 1007.7 |
| 20260507084306 | 20 | 360 | 3.2 | 17.7 | 0.00 | 0.15 | 0.13 | 93 | 1007.7 |
| 20260507083806 | 20 | 360 | 6.4 | 12.9 | 0.00 | 0.15 | 0.13 | 93 | 1007.7 |
| 20260507083306 | 20 | 360 | 11.3 | 12.9 | 0.00 | 0.15 | 0.13 | 93 | 1007.8 |
| 20260507082806 | 20 | 360 | 6.4 | 14.5 | 0.00 | 0.15 | 0.13 | 93 | 1008.1 |
| 20260507082307 | 20 | 360 | 11.3 | 14.5 | 0.00 | 0.15 | 0.13 | 93 | 1008.2 |
| 20260507081806 | 20 | 360 | 8.0 | 12.9 | 0.00 | 0.15 | 0.13 | 93 | 1008.0 |
| 20260507081306 | 20 | 360 | 1.6 | 12.9 | 0.00 | 0.15 | 0.13 | 93 | 1007.8 |
| 20260507080806 | 20 | 360 | 3.2 | 16.1 | 0.00 | 0.15 | 0.13 | 93 | 1007.9 |
| 20260507080306 | 20 | 360 | 6.4 | 17.7 | 0.00 | 0.15 | 0.13 | 93 | 1008.0 |
| 20260507075806 | 20 | 360 | 8.0 | 17.7 | 0.00 | 0.15 | 0.13 | 93 | 1008.1 |
| 20260507074806 | 20 | 360 | 4.8 | 17.7 | 0.00 | 0.15 | 0.13 | 92 | 1008.3 |
| 20260507074306 | 20 | 360 | 1.6 | 17.7 | 0.00 | 0.15 | 0.13 | 92 | 1008.3 |
| 20260507073806 | 20 | 360 | 6.4 | 20.9 | 0.00 | 0.15 | 0.13 | 92 | 1008.3 |
| 20260507073306 | 20 | 360 | 8.0 | 20.9 | 0.00 | 0.15 | 0.13 | 92 | 1008.3 |
| 20260507072806 | 20 | 360 | 3.2 | 17.7 | 0.00 | 0.15 | 0.13 | 93 | 1008.2 |
| 20260507072308 | 20 | 360 | 9.7 | 14.5 | 0.00 | 0.15 | 0.13 | 93 | 1008.3 |
| 20260507071806 | 20 | 360 | 4.8 | 16.1 | 0.00 | 0.15 | 0.13 | 93 | 1008.3 |
| 20260507071306 | 20 | 360 | 8.0 | 16.1 | 0.03 | 0.15 | 0.13 | 93 | 1008.3 |
| 20260507070306 | 20 | 360 | 9.7 | 12.9 | 0.05 | 0.15 | 0.13 | 93 | 1008.5 |
| 20260507065806 | 20 | 360 | 3.2 | 14.5 | 0.05 | 0.15 | 0.13 | 92 | 1008.6 |
| 20260507065306 | 20 | 360 | 6.4 | 14.5 | 0.05 | 0.15 | 0.13 | 92 | 1008.5 |
| 20260507064806 | 20 | 360 | 1.6 | 11.3 | 0.08 | 0.15 | 0.13 | 92 | 1008.4 |
| 20260507063806 | 20 | 360 | 3.2 | 14.5 | 0.08 | 0.15 | 0.13 | 92 | 1008.2 |
| 20260507063306 | 20 | 360 | 1.6 | 9.7 | 0.08 | 0.15 | 0.13 | 92 | 1008.3 |
| 20260507062306 | 20 | 360 | 1.6 | 9.7 | 0.08 | 0.15 | 0.13 | 92 | 1008.2 |
| 20260507061806 | 20 | 360 | 0.0 | 8.0 | 0.10 | 0.15 | 0.13 | 92 | 1007.9 |
| 20260507061306 | 20 | 360 | 0.0 | 9.7 | 0.08 | 0.13 | 0.10 | 91 | 1007.9 |
| 20260507060306 | 20 | 360 | 4.8 | 12.9 | 0.05 | 0.10 | 0.08 | 91 | 1008.7 |
| 20260507055806 | 20 | 360 | 0.0 | 9.7 | 0.05 | 0.10 | 0.08 | 91 | 1009.0 |
| 20260507055306 | 20 | 360 | 0.0 | 11.3 | 0.05 | 0.10 | 0.08 | 90 | 1009.1 |
| 20260507054806 | 20 | 360 | 3.2 | 14.5 | 0.05 | 0.08 | 0.05 | 90 | 1009.2 |
| 20260507054306 | 20 | 360 | 1.6 | 14.5 | 0.05 | 0.08 | 0.05 | 90 | 1009.4 |
| 20260507053807 | 20 | 360 | 3.2 | 12.9 | 0.05 | 0.08 | 0.05 | 90 | 1009.2 |
| 20260507053306 | 20 | 360 | 0.0 | 12.9 | 0.05 | 0.08 | 0.05 | 89 | 1009.2 |
| 20260507052806 | 20 | 360 | 3.2 | 9.7 | 0.05 | 0.08 | 0.05 | 89 | 1009.3 |
| 20260507052307 | 20 | 360 | 0.0 | 8.0 | 0.05 | 0.08 | 0.05 | 88 | 1009.5 |
| 20260507051306 | 20 | 360 | 3.2 | 11.3 | 0.03 | 0.05 | 0.03 | 88 | 1009.7 |
| 20260507050806 | 20 | 360 | 1.6 | 11.3 | 0.03 | 0.05 | 0.03 | 87 | 1009.9 |
| 20260507050306 | 20 | 360 | 1.6 | 9.7 | 0.03 | 0.05 | 0.03 | 86 | 1009.8 |
| 20260507045806 | 21 | 252 | 0.0 | 9.7 | 0.03 | 0.05 | 0.03 | 86 | 1009.7 |
| 20260507045307 | 21 | 246 | 0.0 | 9.7 | 0.03 | 0.05 | 0.03 | 85 | 1009.6 |
| 20260507044806 | 21 | 239 | 4.8 | 9.7 | 0.00 | 0.03 | 0.00 | 84 | 1009.5 |
| 20260507044306 | 21 | 266 | 0.0 | 8.0 | 0.00 | 0.03 | 0.00 | 84 | 1009.3 |
| 20260507043806 | 21 | 196 | 0.0 | 8.0 | 0.00 | 0.03 | 0.00 | 83 | 1009.2 |
| 20260507043306 | 21 | 230 | 1.6 | 8.0 | 0.00 | 0.03 | 0.00 | 82 | 1009.2 |
| 20260507042806 | 21 | 223 | 0.0 | 9.7 | 0.00 | 0.03 | 0.00 | 81 | 1009.2 |
| 20260507042307 | 21 | 205 | 4.8 | 9.7 | 0.00 | 0.03 | 0.00 | 81 | 1009.4 |
| 20260507041806 | 21 | 230 | 3.2 | 12.9 | 0.00 | 0.03 | 0.00 | 80 | 1009.5 |
| 20260507041306 | 21 | 227 | 8.0 | 12.9 | 0.00 | 0.03 | 0.00 | 79 | 1009.4 |
| 20260507040306 | 21 | 244 | 1.6 | 9.7 | 0.00 | 0.03 | 0.00 | 79 | 1009.3 |
| 20260507035306 | 22 | 253 | 1.6 | 11.3 | 0.00 | 0.03 | 0.03 | 78 | 1009.5 |
| 20260507034806 | 22 | 242 | 0.0 | 9.7 | 0.00 | 0.03 | 0.03 | 78 | 1009.3 |
| 20260507034306 | 22 | 246 | 0.0 | 9.7 | 0.00 | 0.03 | 0.03 | 77 | 1009.2 |
| 20260507033806 | 22 | 220 | 6.4 | 12.9 | 0.00 | 0.03 | 0.03 | 77 | 1009.1 |
| 20260507033306 | 22 | 239 | 6.4 | 12.9 | 0.00 | 0.03 | 0.03 | 77 | 1009.0 |
| 20260507032806 | 22 | 247 | 6.4 | 12.9 | 0.00 | 0.03 | 0.03 | 77 | 1009.0 |
| 20260507031806 | 22 | 255 | 0.0 | 9.7 | 0.00 | 0.03 | 0.03 | 77 | 1009.0 |
| 20260507031306 | 22 | 211 | 6.4 | 9.7 | 0.00 | 0.03 | 0.03 | 77 | 1009.0 |
| 20260507030806 | 22 | 255 | 6.4 | 14.5 | 0.00 | 0.03 | 0.03 | 76 | 1008.8 |
| 20260507030306 | 22 | 255 | 6.4 | 14.5 | 0.00 | 0.03 | 0.03 | 76 | 1008.8 |
| 20260507025806 | 22 | 223 | 3.2 | 12.9 | 0.00 | 0.03 | 0.03 | 76 | 1008.9 |
| 20260507025307 | 22 | 226 | 4.8 | 14.5 | 0.00 | 0.03 | 0.03 | 76 | 1008.9 |
| 20260507024806 | 22 | 248 | 6.4 | 14.5 | 0.00 | 0.03 | 0.03 | 76 | 1009.0 |
| 20260507024306 | 22 | 267 | 8.0 | 12.9 | 0.00 | 0.03 | 0.03 | 76 | 1009.3 |
| 20260507023806 | 22 | 265 | 6.4 | 14.5 | 0.00 | 0.03 | 0.03 | 76 | 1009.3 |
| 20260507023306 | 22 | 243 | 0.0 | 14.5 | 0.00 | 0.03 | 0.03 | 76 | 1009.2 |
| 20260507022806 | 22 | 230 | 8.0 | 9.7 | 0.00 | 0.03 | 0.03 | 76 | 1009.1 |
| 20260507022306 | 22 | 215 | 0.0 | 9.7 | 0.00 | 0.03 | 0.03 | 76 | 1009.5 |
| 20260507021806 | 22 | 245 | 0.0 | 9.7 | 0.00 | 0.03 | 0.03 | 75 | 1009.5 |
| 20260507021306 | 22 | 238 | 3.2 | 9.7 | 0.00 | 0.03 | 0.03 | 75 | 1009.5 |
| 20260507020806 | 22 | 229 | 0.0 | 9.7 | 0.00 | 0.03 | 0.03 | 75 | 1009.5 |
| 20260507020306 | 22 | 243 | 1.6 | 6.4 | 0.00 | 0.03 | 0.03 | 74 | 1009.4 |
| 20260507015806 | 22 | 242 | 0.0 | 9.7 | 0.00 | 0.03 | 0.03 | 74 | 1009.3 |
| 20260507015306 | 22 | 231 | 1.6 | 9.7 | 0.00 | 0.03 | 0.03 | 74 | 1009.4 |
| 20260507014806 | 22 | 230 | 1.6 | 9.7 | 0.00 | 0.03 | 0.03 | 74 | 1009.5 |
| 20260507014306 | 22 | 209 | 0.0 | 9.7 | 0.00 | 0.03 | 0.03 | 74 | 1009.4 |
| 20260507013806 | 22 | 248 | 1.6 | 9.7 | 0.00 | 0.03 | 0.03 | 74 | 1009.6 |
| 20260507013306 | 22 | 246 | 3.2 | 11.3 | 0.00 | 0.03 | 0.03 | 73 | 1009.5 |
| 20260507012806 | 22 | 232 | 6.4 | 11.3 | 0.00 | 0.03 | 0.03 | 73 | 1009.3 |
| 20260507012307 | 22 | 263 | 0.0 | 11.3 | 0.00 | 0.03 | 0.03 | 73 | 1009.3 |
| 20260507011806 | 22 | 236 | 1.6 | 8.0 | 0.00 | 0.03 | 0.03 | 73 | 1009.2 |
| 20260507011306 | 22 | 240 | 8.0 | 8.0 | 0.00 | 0.03 | 0.03 | 73 | 1009.3 |
| 20260507010306 | 22 | 253 | 0.0 | 6.4 | 0.00 | 0.03 | 0.03 | 72 | 1009.3 |
| 20260507005306 | 22 | 240 | 0.0 | 12.9 | 0.00 | 0.03 | 0.03 | 71 | 1009.5 |
| 20260507004806 | 22 | 211 | 0.0 | 12.9 | 0.00 | 0.03 | 0.03 | 71 | 1009.5 |
| 20260507003806 | 22 | 221 | 0.0 | 9.7 | 0.00 | 0.03 | 0.03 | 71 | 1009.6 |
| 20260507003306 | 22 | 235 | 0.0 | 8.0 | 0.00 | 0.03 | 0.03 | 70 | 1009.6 |
| 20260507002806 | 22 | 248 | 0.0 | 8.0 | 0.00 | 0.03 | 0.03 | 70 | 1009.6 |
| 20260507001806 | 23 | 240 | 0.0 | 1.6 | 0.00 | 0.03 | 0.03 | 69 | 1009.3 |
| 20260507001306 | 23 | 240 | 0.0 | 0.0 | 0.00 | 0.03 | 0.03 | 69 | 1009.4 |
| 20260507000806 | 23 | 240 | 0.0 | 3.2 | 0.00 | 0.03 | 0.03 | 68 | 1009.4 |
| 20260507000306 | 23 | 239 | 0.0 | 8.0 | 0.00 | 0.03 | 0.03 | 68 | 1009.3 |
| 20260506235805 | 23 | 248 | 0.0 | 8.0 | 0.00 | 0.03 | 0.03 | 67 | 1009.2 |
| 20260506235307 | 23 | 210 | 0.0 | 8.0 | 0.00 | 0.03 | 0.03 | 66 | 1009.2 |
| 20260506234806 | 23 | 250 | 1.6 | 9.7 | 0.00 | 0.03 | 0.03 | 66 | 1009.1 |
| 20260506234306 | 23 | 232 | 3.2 | 9.7 | 0.00 | 0.03 | 0.03 | 66 | 1009.0 |
| 20260506233805 | 23 | 207 | 9.7 | 14.5 | 0.00 | 0.03 | 0.03 | 66 | 1008.9 |
| 20260506233305 | 23 | 225 | 8.0 | 14.5 | 0.00 | 0.03 | 0.03 | 65 | 1008.9 |
| 20260506232806 | 24 | 236 | 6.4 | 11.3 | 0.00 | 0.03 | 0.03 | 65 | 1008.9 |
| 20260506232306 | 24 | 244 | 3.2 | 12.9 | 0.00 | 0.03 | 0.03 | 65 | 1008.8 |
| 20260506231805 | 24 | 247 | 0.0 | 14.5 | 0.00 | 0.03 | 0.03 | 64 | 1008.7 |
| 20260506231305 | 24 | 205 | 0.0 | 14.5 | 0.00 | 0.03 | 0.03 | 64 | 1008.7 |
| 20260506230805 | 24 | 225 | 6.4 | 14.5 | 0.00 | 0.03 | 0.03 | 64 | 1008.8 |
| 20260506230305 | 24 | 227 | 9.7 | 14.5 | 0.00 | 0.03 | 0.03 | 63 | 1008.7 |
| 20260506225805 | 24 | 250 | 0.0 | 14.5 | 0.00 | 0.03 | 0.03 | 63 | 1008.6 |
| 20260506225306 | 24 | 265 | 14.5 | 14.5 | 0.00 | 0.03 | 0.03 | 63 | 1008.7 |
| 20260506224805 | 24 | 230 | 6.4 | 12.9 | 0.00 | 0.03 | 0.03 | 62 | 1008.7 |
| 20260506223805 | 25 | 257 | 0.0 | 14.5 | 0.00 | 0.03 | 0.03 | 62 | 1008.6 |
| 20260506223305 | 25 | 232 | 1.6 | 14.5 | 0.00 | 0.03 | 0.03 | 61 | 1008.6 |
| 20260506222805 | 25 | 257 | 1.6 | 14.5 | 0.00 | 0.03 | 0.03 | 62 | 1008.6 |
| 20260506222306 | 25 | 293 | 3.2 | 14.5 | 0.00 | 0.03 | 0.03 | 61 | 1008.7 |
| 20260506221805 | 25 | 229 | 0.0 | 16.1 | 0.00 | 0.03 | 0.03 | 61 | 1008.7 |
| 20260506221305 | 25 | 248 | 1.6 | 16.1 | 0.00 | 0.03 | 0.03 | 62 | 1008.7 |
| 20260506220805 | 25 | 271 | 11.3 | 11.3 | 0.00 | 0.03 | 0.03 | 62 | 1008.7 |
| 20260506220305 | 24 | 275 | 8.0 | 9.7 | 0.00 | 0.03 | 0.03 | 62 | 1008.6 |
| 20260506214805 | 24 | 237 | 1.6 | 9.7 | 0.00 | 0.03 | 0.03 | 63 | 1008.6 |
| 20260506214305 | 24 | 246 | 0.0 | 9.7 | 0.00 | 0.03 | 0.03 | 63 | 1008.5 |
| 20260506213805 | 24 | 246 | 0.0 | 11.3 | 0.00 | 0.03 | 0.03 | 63 | 1008.5 |
| 20260506212805 | 24 | 225 | 0.0 | 11.3 | 0.00 | 0.03 | 0.03 | 63 | 1008.6 |
| 20260506211805 | 24 | 208 | 0.0 | 16.1 | 0.00 | 0.03 | 0.03 | 62 | 1008.6 |
| 20260506211305 | 24 | 226 | 8.0 | 17.7 | 0.00 | 0.03 | 0.03 | 62 | 1008.4 |
| 20260506210805 | 24 | 217 | 0.0 | 17.7 | 0.00 | 0.03 | 0.03 | 62 | 1008.3 |
| 20260506210306 | 24 | 250 | 1.6 | 17.7 | 0.00 | 0.03 | 0.03 | 62 | 1008.3 |
| 20260506205805 | 24 | 196 | 0.0 | 17.7 | 0.00 | 0.03 | 0.03 | 62 | 1008.1 |
| 20260506205306 | 24 | 252 | 0.0 | 17.7 | 0.00 | 0.03 | 0.03 | 61 | 1008.0 |
| 20260506204805 | 24 | 249 | 8.0 | 17.7 | 0.00 | 0.03 | 0.03 | 62 | 1008.2 |
| 20260506204305 | 24 | 251 | 4.8 | 19.3 | 0.00 | 0.03 | 0.03 | 62 | 1008.1 |
| 20260506203805 | 25 | 263 | 1.6 | 19.3 | 0.00 | 0.03 | 0.03 | 61 | 1008.2 |
| 20260506203305 | 25 | 230 | 3.2 | 24.1 | 0.00 | 0.03 | 0.03 | 61 | 1008.2 |
| 20260506202806 | 25 | 228 | 0.0 | 24.1 | 0.00 | 0.03 | 0.03 | 61 | 1008.2 |
| 20260506202306 | 25 | 227 | 8.0 | 29.0 | 0.00 | 0.03 | 0.03 | 60 | 1008.2 |
| 20260506201305 | 25 | 195 | 8.0 | 30.6 | 0.00 | 0.03 | 0.03 | 60 | 1008.5 |
| 20260506200805 | 25 | 221 | 6.4 | 22.5 | 0.00 | 0.03 | 0.03 | 61 | 1008.4 |
| 20260506195805 | 24 | 219 | 11.3 | 19.3 | 0.00 | 0.03 | 0.03 | 62 | 1008.7 |
| 20260506194805 | 24 | 244 | 3.2 | 24.1 | 0.03 | 0.03 | 0.03 | 62 | 1009.1 |
| 20260506194305 | 24 | 229 | 12.9 | 24.1 | 0.03 | 0.03 | 0.03 | 63 | 1009.4 |
| 20260506193805 | 24 | 227 | 1.6 | 24.1 | 0.03 | 0.03 | 0.03 | 64 | 1009.5 |
| 20260506192306 | 22 | 258 | 8.0 | 22.5 | 0.03 | 0.03 | 0.03 | 71 | 1009.8 |
| 20260506191805 | 22 | 234 | 9.7 | 19.3 | 0.03 | 0.03 | 0.03 | 72 | 1009.8 |
| 20260506191305 | 22 | 360 | 12.9 | 19.3 | 0.03 | 0.03 | 0.03 | 73 | 1009.9 |
| 20260506190805 | 22 | 360 | 6.4 | 25.7 | 0.03 | 0.03 | 0.03 | 75 | 1010.1 |
| 20260506190305 | 22 | 360 | 3.2 | 25.7 | 0.03 | 0.03 | 0.03 | 74 | 1010.3 |
| 20260506185805 | 23 | 296 | 12.9 | 24.1 | 0.03 | 0.03 | 0.03 | 71 | 1010.3 |
| 20260506185307 | 24 | 215 | 9.7 | 19.3 | 0.00 | 0.00 | 0.00 | 68 | 1010.3 |
| 20260506184805 | 24 | 210 | 8.0 | 17.7 | 0.00 | 0.00 | 0.00 | 64 | 1010.3 |
| 20260506184305 | 25 | 240 | 8.0 | 17.7 | 0.00 | 0.00 | 0.00 | 64 | 1010.3 |
| 20260506183805 | 24 | 231 | 17.7 | 17.7 | 0.00 | 0.00 | 0.00 | 65 | 1010.4 |
| 20260506183305 | 24 | 252 | 8.0 | 17.7 | 0.00 | 0.00 | 0.00 | 65 | 1010.4 |
| 20260506182805 | 24 | 246 | 6.4 | 19.3 | 0.00 | 0.00 | 0.00 | 65 | 1010.4 |
| 20260506182306 | 24 | 229 | 6.4 | 22.5 | 0.00 | 0.00 | 0.00 | 66 | 1010.3 |
| 20260506181305 | 24 | 242 | 8.0 | 20.9 | 0.00 | 0.00 | 0.00 | 67 | 1010.4 |
| 20260506180805 | 23 | 207 | 1.6 | 20.9 | 0.00 | 0.00 | 0.00 | 68 | 1010.5 |
| 20260506180305 | 23 | 256 | 11.3 | 20.9 | 0.00 | 0.00 | 0.00 | 68 | 1010.4 |
| 20260506175805 | 23 | 211 | 6.4 | 24.1 | 0.00 | 0.00 | 0.00 | 68 | 1010.4 |
| 20260506175306 | 23 | 238 | 3.2 | 24.1 | 0.00 | 0.00 | 0.00 | 67 | 1010.6 |
| 20260506174305 | 23 | 229 | 14.5 | 20.9 | 0.00 | 0.00 | 0.00 | 69 | 1010.6 |
| 20260506173305 | 23 | 258 | 6.4 | 22.5 | 0.00 | 0.00 | 0.00 | 69 | 1010.7 |
| 20260506172805 | 23 | 234 | 12.9 | 16.1 | 0.00 | 0.00 | 0.00 | 69 | 1010.9 |
| 20260506172307 | 23 | 261 | 6.4 | 19.3 | 0.00 | 0.00 | 0.00 | 70 | 1010.9 |
| 20260506171805 | 22 | 230 | 0.0 | 19.3 | 0.00 | 0.00 | 0.00 | 70 | 1011.0 |
| 20260506171305 | 22 | 252 | 6.4 | 24.1 | 0.00 | 0.00 | 0.00 | 71 | 1011.1 |
| 20260506170805 | 22 | 239 | 1.6 | 24.1 | 0.00 | 0.00 | 0.00 | 71 | 1011.4 |
| 20260506170305 | 22 | 255 | 6.4 | 16.1 | 0.00 | 0.00 | 0.00 | 71 | 1011.7 |
| 20260506165805 | 22 | 239 | 9.7 | 17.7 | 0.00 | 0.00 | 0.00 | 71 | 1011.7 |
| 20260506165306 | 22 | 248 | 4.8 | 17.7 | 0.00 | 0.00 | 0.00 | 72 | 1012.0 |
| 20260506164805 | 22 | 239 | 1.6 | 17.7 | 0.00 | 0.00 | 0.00 | 72 | 1012.0 |
| 20260506164305 | 22 | 266 | 11.3 | 19.3 | 0.00 | 0.00 | 0.00 | 72 | 1011.9 |
| 20260506163805 | 22 | 270 | 3.2 | 22.5 | 0.00 | 0.00 | 0.00 | 72 | 1011.9 |
| 20260506163304 | 22 | 221 | 6.4 | 22.5 | 0.00 | 0.00 | 0.00 | 72 | 1011.8 |
| 20260506162804 | 21 | 236 | 9.7 | 19.3 | 0.00 | 0.00 | 0.00 | 73 | 1011.8 |
| 20260506161805 | 21 | 218 | 12.9 | 24.1 | 0.00 | 0.00 | 0.00 | 74 | 1011.9 |
| 20260506161305 | 21 | 256 | 3.2 | 24.1 | 0.00 | 0.00 | 0.00 | 75 | 1011.8 |